sensor_id;sensor_type;location;lat;lon;timestamp;pressure;altitude;pressure_sealevel;temperature;humidity
7930;BME280;4010;42.698;23.124;2022-09-01T00:02:06;-2007.16;;;-140.64;100.00
7930;BME280;4010;42.698;23.124;2022-09-01T00:04:35;-2261.41;;;-140.64;100.00
7930;BME280;4010;42.698;23.124;2022-09-01T00:07:05;-2007.16;;;-140.64;100.00
7930;BME280;4010;42.698;23.124;2022-09-01T00:09:32;-2007.16;;;-140.64;100.00
7930;BME280;4010;42.698;23.124;2022-09-01T00:12:00;-1752.91;;;-140.64;100.00
7930;BME280;4010;42.698;23.124;2022-09-01T00:14:30;-1752.91;;;-140.64;100.00
7930;BME280;4010;42.698;23.124;2022-09-01T00:16:59;-1752.91;;;-140.64;100.00
7930;BME280;4010;42.698;23.124;2022-09-01T00:19:27;-1498.63;;;-140.64;100.00
7930;BME280;4010;42.698;23.124;2022-09-01T00:21:55;-1498.63;;;-140.64;100.00
7930;BME280;4010;42.698;23.124;2022-09-01T00:24:23;-1244.34;;;-140.64;100.00
7930;BME280;4010;42.698;23.124;2022-09-01T00:26:50;-990.03;;;-140.64;100.00
7930;BME280;4010;42.698;23.124;2022-09-01T00:29:17;-1244.34;;;-140.64;100.00
7930;BME280;4010;42.698;23.124;2022-09-01T00:31:43;-1498.63;;;-140.64;100.00
7930;BME280;4010;42.698;23.124;2022-09-01T00:34:10;-2007.16;;;-140.64;100.00
7930;BME280;4010;42.698;23.124;2022-09-01T00:36:38;-1752.91;;;-140.64;100.00
7930;BME280;4010;42.698;23.124;2022-09-01T00:39:05;-1752.91;;;-140.64;100.00
7930;BME280;4010;42.698;23.124;2022-09-01T00:41:36;-2007.16;;;-140.64;100.00
7930;BME280;4010;42.698;23.124;2022-09-01T00:44:07;-2515.63;;;-140.64;100.00
7930;BME280;4010;42.698;23.124;2022-09-01T00:46:42;-2515.63;;;-140.64;100.00
7930;BME280;4010;42.698;23.124;2022-09-01T00:49:13;-2515.63;;;-140.64;100.00
7930;BME280;4010;42.698;23.124;2022-09-01T00:51:43;-2515.63;;;-140.64;100.00
7930;BME280;4010;42.698;23.124;2022-09-01T00:54:15;-2515.63;;;-140.64;100.00
7930;BME280;4010;42.698;23.124;2022-09-01T00:56:45;-2515.63;;;-140.64;100.00
7930;BME280;4010;42.698;23.124;2022-09-01T00:59:14;-2515.63;;;-140.64;100.00
7930;BME280;4010;42.698;23.124;2022-09-01T01:01:42;-2007.16;;;-140.64;100.00
7930;BME280;4010;42.698;23.124;2022-09-01T01:04:09;-2261.41;;;-140.64;100.00
7930;BME280;4010;42.698;23.124;2022-09-01T01:06:40;-2515.63;;;-140.64;100.00
7930;BME280;4010;42.698;23.124;2022-09-01T01:09:08;-2007.16;;;-140.64;100.00
7930;BME280;4010;42.698;23.124;2022-09-01T01:11:35;-2007.16;;;-140.64;100.00
7930;BME280;4010;42.698;23.124;2022-09-01T01:14:06;-1752.91;;;-140.64;100.00
7930;BME280;4010;42.698;23.124;2022-09-01T01:16:37;-2007.16;;;-140.64;100.00
7930;BME280;4010;42.698;23.124;2022-09-01T01:19:12;-2515.63;;;-140.64;100.00
7930;BME280;4010;42.698;23.124;2022-09-01T01:22:05;-2261.41;;;-140.64;100.00
7930;BME280;4010;42.698;23.124;2022-09-01T01:24:52;-1752.91;;;-140.64;100.00
7930;BME280;4010;42.698;23.124;2022-09-01T01:27:20;-1752.91;;;-140.64;100.00
7930;BME280;4010;42.698;23.124;2022-09-01T01:29:47;-1498.63;;;-140.64;100.00
7930;BME280;4010;42.698;23.124;2022-09-01T01:32:14;-1244.34;;;-140.64;100.00
7930;BME280;4010;42.698;23.124;2022-09-01T01:34:42;-1244.34;;;-140.64;100.00
7930;BME280;4010;42.698;23.124;2022-09-01T01:37:11;-990.03;;;-140.64;100.00
7930;BME280;4010;42.698;23.124;2022-09-01T01:39:40;-735.69;;;-140.64;100.00
7930;BME280;4010;42.698;23.124;2022-09-01T01:42:09;-735.69;;;-140.64;100.00
7930;BME280;4010;42.698;23.124;2022-09-01T01:44:37;-481.34;;;-140.64;100.00
7930;BME280;4010;42.698;23.124;2022-09-01T01:47:08;-481.34;;;-140.64;100.00
7930;BME280;4010;42.698;23.124;2022-09-01T01:49:38;-226.97;;;-140.64;100.00
7930;BME280;4010;42.698;23.124;2022-09-01T01:52:09;-226.97;;;-140.64;100.00
7930;BME280;4010;42.698;23.124;2022-09-01T01:54:37;27.44;;;-140.64;100.00
7930;BME280;4010;42.698;23.124;2022-09-01T01:57:04;27.44;;;-140.64;100.00
7930;BME280;4010;42.698;23.124;2022-09-01T01:59:33;-226.97;;;-140.64;100.00
7930;BME280;4010;42.698;23.124;2022-09-01T02:02:02;-735.69;;;-140.64;100.00
7930;BME280;4010;42.698;23.124;2022-09-01T02:04:33;-481.34;;;-140.64;100.00
7930;BME280;4010;42.698;23.124;2022-09-01T02:06:59;-735.69;;;-140.64;100.00
7930;BME280;4010;42.698;23.124;2022-09-01T02:09:26;-735.69;;;-140.64;100.00
7930;BME280;4010;42.698;23.124;2022-09-01T02:11:53;-735.69;;;-140.64;100.00
7930;BME280;4010;42.698;23.124;2022-09-01T02:14:21;-990.03;;;-140.64;100.00
7930;BME280;4010;42.698;23.124;2022-09-01T02:16:50;-735.69;;;-140.64;100.00
7930;BME280;4010;42.698;23.124;2022-09-01T02:19:20;-990.03;;;-140.64;100.00
7930;BME280;4010;42.698;23.124;2022-09-01T02:21:47;-1244.34;;;-140.64;100.00
7930;BME280;4010;42.698;23.124;2022-09-01T02:24:21;-1244.34;;;-140.64;100.00
7930;BME280;4010;42.698;23.124;2022-09-01T02:26:48;-990.03;;;-140.64;100.00
7930;BME280;4010;42.698;23.124;2022-09-01T02:29:18;-990.03;;;-140.64;100.00
7930;BME280;4010;42.698;23.124;2022-09-01T02:31:48;-1498.63;;;-140.64;100.00
7930;BME280;4010;42.698;23.124;2022-09-01T02:34:17;-735.69;;;-140.64;100.00
7930;BME280;4010;42.698;23.124;2022-09-01T02:36:47;-481.34;;;-140.64;100.00
7930;BME280;4010;42.698;23.124;2022-09-01T02:39:15;27.44;;;-140.64;100.00
7930;BME280;4010;42.698;23.124;2022-09-01T02:41:42;281.84;;;-140.64;100.00
7930;BME280;4010;42.698;23.124;2022-09-01T02:44:09;790.75;;;-140.64;100.00
7930;BME280;4010;42.698;23.124;2022-09-01T02:46:37;1045.22;;;-140.64;100.00
7930;BME280;4010;42.698;23.124;2022-09-01T02:49:07;1045.22;;;-140.64;100.00
7930;BME280;4010;42.698;23.124;2022-09-01T02:51:42;1299.69;;;-140.64;100.00
7930;BME280;4010;42.698;23.124;2022-09-01T02:54:10;1299.69;;;-140.64;100.00
7930;BME280;4010;42.698;23.124;2022-09-01T02:56:42;1808.75;;;-140.64;100.00
7930;BME280;4010;42.698;23.124;2022-09-01T02:59:09;1808.75;;;-140.64;100.00
7930;BME280;4010;42.698;23.124;2022-09-01T03:01:38;1808.75;;;-140.64;100.00
7930;BME280;4010;42.698;23.124;2022-09-01T03:04:06;1808.75;;;-140.64;100.00
7930;BME280;4010;42.698;23.124;2022-09-01T03:06:35;2063.31;;;-140.64;100.00
7930;BME280;4010;42.698;23.124;2022-09-01T03:09:05;2317.88;;;-140.64;100.00
7930;BME280;4010;42.698;23.124;2022-09-01T03:11:35;2572.47;;;-140.64;100.00
7930;BME280;4010;42.698;23.124;2022-09-01T03:14:03;2572.47;;;-140.64;100.00
7930;BME280;4010;42.698;23.124;2022-09-01T03:16:30;2572.47;;;-140.64;100.00
7930;BME280;4010;42.698;23.124;2022-09-01T03:18:57;2572.47;;;-140.64;100.00
7930;BME280;4010;42.698;23.124;2022-09-01T03:21:25;2317.88;;;-140.64;100.00
7930;BME280;4010;42.698;23.124;2022-09-01T03:23:52;2572.47;;;-140.64;100.00
7930;BME280;4010;42.698;23.124;2022-09-01T03:26:21;2317.88;;;-140.64;100.00
7930;BME280;4010;42.698;23.124;2022-09-01T03:28:48;2317.88;;;-140.64;100.00
7930;BME280;4010;42.698;23.124;2022-09-01T03:31:16;2317.88;;;-140.64;100.00
7930;BME280;4010;42.698;23.124;2022-09-01T03:33:43;2063.31;;;-140.64;100.00
7930;BME280;4010;42.698;23.124;2022-09-01T03:36:10;2317.88;;;-140.64;100.00
7930;BME280;4010;42.698;23.124;2022-09-01T03:38:43;3336.34;;;-140.64;100.00
7930;BME280;4010;42.698;23.124;2022-09-01T03:41:14;3591.03;;;-140.64;100.00
7930;BME280;4010;42.698;23.124;2022-09-01T03:43:44;3336.34;;;-140.64;100.00
7930;BME280;4010;42.698;23.124;2022-09-01T03:46:12;2827.06;;;-140.64;100.00
7930;BME280;4010;42.698;23.124;2022-09-01T03:48:44;2572.47;;;-140.64;100.00
7930;BME280;4010;42.698;23.124;2022-09-01T03:51:11;2317.88;;;-140.64;100.00
7930;BME280;4010;42.698;23.124;2022-09-01T03:53:39;2317.88;;;-140.64;100.00
7930;BME280;4010;42.698;23.124;2022-09-01T03:56:06;2063.31;;;-140.64;100.00
7930;BME280;4010;42.698;23.124;2022-09-01T03:58:33;1808.75;;;-140.64;100.00
7930;BME280;4010;42.698;23.124;2022-09-01T04:01:01;1554.22;;;-140.64;100.00
7930;BME280;4010;42.698;23.124;2022-09-01T04:03:31;1554.22;;;-140.64;100.00
7930;BME280;4010;42.698;23.124;2022-09-01T04:06:00;1554.22;;;-140.64;100.00
7930;BME280;4010;42.698;23.124;2022-09-01T04:08:27;1554.22;;;-140.64;100.00
7930;BME280;4010;42.698;23.124;2022-09-01T04:10:56;1299.69;;;-140.64;100.00
7930;BME280;4010;42.698;23.124;2022-09-01T04:13:26;790.75;;;-140.64;100.00
7930;BME280;4010;42.698;23.124;2022-09-01T04:15:55;536.28;;;-140.64;100.00
7930;BME280;4010;42.698;23.124;2022-09-01T04:18:24;281.84;;;-140.64;100.00
7930;BME280;4010;42.698;23.124;2022-09-01T04:20:51;281.84;;;-140.64;100.00
7930;BME280;4010;42.698;23.124;2022-09-01T04:23:20;-226.97;;;-140.64;100.00
7930;BME280;4010;42.698;23.124;2022-09-01T04:25:52;-735.69;;;-140.64;100.00
7930;BME280;4010;42.698;23.124;2022-09-01T04:28:20;-1498.63;;;-140.64;100.00
7930;BME280;4010;42.698;23.124;2022-09-01T04:30:51;-2261.41;;;-140.64;100.00
7930;BME280;4010;42.698;23.124;2022-09-01T04:33:23;-3024.00;;;-140.64;100.00
7930;BME280;4010;42.698;23.124;2022-09-01T04:35:50;-5056.69;;;-140.64;100.00
7930;BME280;4010;42.698;23.124;2022-09-01T04:38:20;-8357.16;;;-140.64;100.00
7930;BME280;4010;42.698;23.124;2022-09-01T04:40:47;-7595.81;;;-140.64;100.00
7930;BME280;4010;42.698;23.124;2022-09-01T04:43:15;-6326.50;;;-140.64;100.00
7930;BME280;4010;42.698;23.124;2022-09-01T04:45:45;8943.66;;;-140.64;100.00
7930;BME280;4010;42.698;23.124;2022-09-01T04:48:13;46913.88;;;-140.64;100.00
7930;BME280;4010;42.698;23.124;2022-09-01T04:50:41;118349.16;;;-140.64;100.00
7930;BME280;4010;42.698;23.124;2022-09-01T04:53:09;118349.16;;;-140.64;100.00
7930;BME280;4010;42.698;23.124;2022-09-01T04:55:37;118349.16;;;-140.64;100.00
7930;BME280;4010;42.698;23.124;2022-09-01T04:58:08;118349.16;;;-140.64;100.00
7930;BME280;4010;42.698;23.124;2022-09-01T05:00:37;118349.16;;;-140.64;100.00
7930;BME280;4010;42.698;23.124;2022-09-01T05:03:14;118349.16;;;-140.64;100.00
7930;BME280;4010;42.698;23.124;2022-09-01T05:05:49;118349.16;;;-140.64;100.00
7930;BME280;4010;42.698;23.124;2022-09-01T05:08:19;118349.16;;;-140.64;100.00
7930;BME280;4010;42.698;23.124;2022-09-01T05:10:49;118349.16;;;-140.64;100.00
7930;BME280;4010;42.698;23.124;2022-09-01T05:13:18;118349.16;;;-140.64;100.00
7930;BME280;4010;42.698;23.124;2022-09-01T05:15:47;118349.16;;;-140.64;100.00
7930;BME280;4010;42.698;23.124;2022-09-01T05:18:15;118349.16;;;-140.64;100.00
7930;BME280;4010;42.698;23.124;2022-09-01T05:20:50;118349.16;;;-140.64;100.00
7930;BME280;4010;42.698;23.124;2022-09-01T05:23:18;118349.16;;;-140.64;99.10
7930;BME280;4010;42.698;23.124;2022-09-01T05:25:47;118349.16;;;-140.64;96.94
7930;BME280;4010;42.698;23.124;2022-09-01T05:28:16;118349.16;;;-140.64;95.95
7930;BME280;4010;42.698;23.124;2022-09-01T05:30:46;118349.16;;;-140.64;96.83
7930;BME280;4010;42.698;23.124;2022-09-01T05:33:14;118349.16;;;-140.64;92.59
7930;BME280;4010;42.698;23.124;2022-09-01T05:35:42;118349.16;;;-140.64;84.96
7930;BME280;4010;42.698;23.124;2022-09-01T05:38:18;118349.16;;;-140.64;89.63
7930;BME280;4010;42.698;23.124;2022-09-01T05:40:54;118349.16;;;-140.64;85.51
7930;BME280;4010;42.698;23.124;2022-09-01T05:43:22;118349.16;;;-140.64;87.09
7930;BME280;4010;42.698;23.124;2022-09-01T05:45:52;118349.16;;;-140.64;89.05
7930;BME280;4010;42.698;23.124;2022-09-01T05:48:20;118349.16;;;-140.64;95.27
7930;BME280;4010;42.698;23.124;2022-09-01T05:50:48;118349.16;;;-140.64;90.78
7930;BME280;4010;42.698;23.124;2022-09-01T05:53:15;118349.16;;;-140.64;96.84
7930;BME280;4010;42.698;23.124;2022-09-01T05:55:44;118349.16;;;-140.64;100.00
7930;BME280;4010;42.698;23.124;2022-09-01T05:58:12;118349.16;;;-140.64;100.00
7930;BME280;4010;42.698;23.124;2022-09-01T06:00:41;118349.16;;;-140.64;100.00
7930;BME280;4010;42.698;23.124;2022-09-01T06:03:09;118349.16;;;-140.64;100.00
7930;BME280;4010;42.698;23.124;2022-09-01T06:05:36;118349.16;;;-140.64;100.00
7930;BME280;4010;42.698;23.124;2022-09-01T06:08:05;118349.16;;;-140.64;100.00
7930;BME280;4010;42.698;23.124;2022-09-01T06:10:36;118349.16;;;-140.64;100.00
7930;BME280;4010;42.698;23.124;2022-09-01T06:13:05;118349.16;;;-140.64;100.00
7930;BME280;4010;42.698;23.124;2022-09-01T06:15:32;118349.16;;;-140.64;100.00
7930;BME280;4010;42.698;23.124;2022-09-01T06:18:00;118349.16;;;-140.64;100.00
7930;BME280;4010;42.698;23.124;2022-09-01T06:20:27;118349.16;;;-140.64;100.00
7930;BME280;4010;42.698;23.124;2022-09-01T06:22:54;118349.16;;;-140.64;100.00
7930;BME280;4010;42.698;23.124;2022-09-01T06:25:21;118349.16;;;-140.64;100.00
7930;BME280;4010;42.698;23.124;2022-09-01T06:27:48;118349.16;;;-140.64;100.00
7930;BME280;4010;42.698;23.124;2022-09-01T06:30:18;118349.16;;;-140.64;100.00
7930;BME280;4010;42.698;23.124;2022-09-01T06:32:49;118349.16;;;-140.64;100.00
7930;BME280;4010;42.698;23.124;2022-09-01T06:35:17;118349.16;;;-140.64;100.00
7930;BME280;4010;42.698;23.124;2022-09-01T06:37:45;118349.16;;;-140.64;100.00
7930;BME280;4010;42.698;23.124;2022-09-01T06:40:14;118349.16;;;-140.64;100.00
7930;BME280;4010;42.698;23.124;2022-09-01T06:42:43;118349.16;;;-140.64;100.00
7930;BME280;4010;42.698;23.124;2022-09-01T06:45:12;118349.16;;;-140.64;100.00
7930;BME280;4010;42.698;23.124;2022-09-01T06:47:40;118349.16;;;-140.64;100.00
7930;BME280;4010;42.698;23.124;2022-09-01T06:50:09;118349.16;;;-140.64;100.00
7930;BME280;4010;42.698;23.124;2022-09-01T06:52:39;118349.16;;;-140.64;100.00
7930;BME280;4010;42.698;23.124;2022-09-01T06:55:08;118349.16;;;-140.64;100.00
7930;BME280;4010;42.698;23.124;2022-09-01T06:57:35;118349.16;;;-140.64;100.00
7930;BME280;4010;42.698;23.124;2022-09-01T07:00:04;118349.16;;;-140.64;100.00
7930;BME280;4010;42.698;23.124;2022-09-01T07:02:43;118349.16;;;-140.64;100.00
7930;BME280;4010;42.698;23.124;2022-09-01T07:05:11;118349.16;;;-140.64;100.00
7930;BME280;4010;42.698;23.124;2022-09-01T07:07:41;118349.16;;;-140.64;100.00
7930;BME280;4010;42.698;23.124;2022-09-01T07:10:12;118349.16;;;-140.64;100.00
7930;BME280;4010;42.698;23.124;2022-09-01T07:12:39;118349.16;;;-140.64;100.00
7930;BME280;4010;42.698;23.124;2022-09-01T07:15:11;118349.16;;;-140.64;100.00
7930;BME280;4010;42.698;23.124;2022-09-01T07:17:47;118349.16;;;-140.64;100.00
7930;BME280;4010;42.698;23.124;2022-09-01T07:20:16;118349.16;;;-140.64;100.00
7930;BME280;4010;42.698;23.124;2022-09-01T07:22:43;118349.16;;;-140.64;100.00
7930;BME280;4010;42.698;23.124;2022-09-01T07:25:09;118349.16;;;-140.64;100.00
7930;BME280;4010;42.698;23.124;2022-09-01T07:27:37;118349.16;;;-140.64;100.00
7930;BME280;4010;42.698;23.124;2022-09-01T07:30:05;118349.16;;;-140.64;100.00
7930;BME280;4010;42.698;23.124;2022-09-01T07:32:34;118349.16;;;-140.64;100.00
7930;BME280;4010;42.698;23.124;2022-09-01T07:35:03;118349.16;;;-140.64;100.00
7930;BME280;4010;42.698;23.124;2022-09-01T07:37:30;118349.16;;;-140.64;100.00
7930;BME280;4010;42.698;23.124;2022-09-01T07:40:03;118349.16;;;-140.64;100.00
7930;BME280;4010;42.698;23.124;2022-09-01T07:42:30;118349.16;;;-140.64;100.00
7930;BME280;4010;42.698;23.124;2022-09-01T07:44:57;118349.16;;;-140.64;100.00
7930;BME280;4010;42.698;23.124;2022-09-01T07:47:25;118349.16;;;-140.64;100.00
7930;BME280;4010;42.698;23.124;2022-09-01T07:49:53;118349.16;;;-140.64;100.00
7930;BME280;4010;42.698;23.124;2022-09-01T07:52:21;118349.16;;;-140.64;100.00
7930;BME280;4010;42.698;23.124;2022-09-01T07:54:48;118349.16;;;-140.64;100.00
7930;BME280;4010;42.698;23.124;2022-09-01T07:57:15;118349.16;;;-140.64;100.00
7930;BME280;4010;42.698;23.124;2022-09-01T07:59:41;118349.16;;;-140.64;100.00
7930;BME280;4010;42.698;23.124;2022-09-01T08:02:08;118349.16;;;-140.64;100.00
7930;BME280;4010;42.698;23.124;2022-09-01T08:04:36;118349.16;;;-140.64;100.00
7930;BME280;4010;42.698;23.124;2022-09-01T08:07:04;118349.16;;;-140.64;100.00
7930;BME280;4010;42.698;23.124;2022-09-01T08:09:35;118349.16;;;-140.64;100.00
7930;BME280;4010;42.698;23.124;2022-09-01T08:12:03;118349.16;;;-140.64;100.00
7930;BME280;4010;42.698;23.124;2022-09-01T08:14:30;118349.16;;;-140.64;100.00
7930;BME280;4010;42.698;23.124;2022-09-01T08:16:57;118349.16;;;-140.64;100.00
7930;BME280;4010;42.698;23.124;2022-09-01T08:19:23;118349.16;;;-140.64;100.00
7930;BME280;4010;42.698;23.124;2022-09-01T08:21:50;118349.16;;;-140.64;100.00
7930;BME280;4010;42.698;23.124;2022-09-01T08:24:17;118349.16;;;-140.64;100.00
7930;BME280;4010;42.698;23.124;2022-09-01T08:26:45;118349.16;;;-140.64;100.00
7930;BME280;4010;42.698;23.124;2022-09-01T08:29:12;118349.16;;;-140.64;100.00
7930;BME280;4010;42.698;23.124;2022-09-01T08:31:38;118349.16;;;-140.64;100.00
7930;BME280;4010;42.698;23.124;2022-09-01T08:34:05;118349.16;;;-140.64;100.00
7930;BME280;4010;42.698;23.124;2022-09-01T08:36:33;118349.16;;;-140.64;100.00
7930;BME280;4010;42.698;23.124;2022-09-01T08:38:59;118349.16;;;-140.64;100.00
7930;BME280;4010;42.698;23.124;2022-09-01T08:41:40;118349.16;;;-140.64;100.00
7930;BME280;4010;42.698;23.124;2022-09-01T08:44:15;118349.16;;;-140.64;100.00
7930;BME280;4010;42.698;23.124;2022-09-01T08:46:44;118349.16;;;-140.64;100.00
7930;BME280;4010;42.698;23.124;2022-09-01T08:49:14;118349.16;;;-140.64;100.00
7930;BME280;4010;42.698;23.124;2022-09-01T08:51:45;118349.16;;;-140.64;100.00
7930;BME280;4010;42.698;23.124;2022-09-01T08:54:23;118349.16;;;-140.64;100.00
7930;BME280;4010;42.698;23.124;2022-09-01T08:56:53;118349.16;;;-140.64;100.00
7930;BME280;4010;42.698;23.124;2022-09-01T08:59:23;118349.16;;;-140.64;100.00
7930;BME280;4010;42.698;23.124;2022-09-01T09:01:55;118349.16;;;-140.64;100.00
7930;BME280;4010;42.698;23.124;2022-09-01T09:04:34;118349.16;;;-140.64;100.00
7930;BME280;4010;42.698;23.124;2022-09-01T09:07:08;118349.16;;;-140.64;100.00
7930;BME280;4010;42.698;23.124;2022-09-01T09:09:40;118349.16;;;-140.64;100.00
7930;BME280;4010;42.698;23.124;2022-09-01T09:12:21;118349.16;;;-140.64;100.00
7930;BME280;4010;42.698;23.124;2022-09-01T09:15:01;118349.16;;;-140.64;100.00
7930;BME280;4010;42.698;23.124;2022-09-01T09:17:34;118349.16;;;-140.64;100.00
7930;BME280;4010;42.698;23.124;2022-09-01T09:20:03;118349.16;;;-140.64;100.00
7930;BME280;4010;42.698;23.124;2022-09-01T09:22:31;118349.16;;;-140.64;100.00
7930;BME280;4010;42.698;23.124;2022-09-01T09:25:03;118349.16;;;-140.64;100.00
7930;BME280;4010;42.698;23.124;2022-09-01T09:27:34;118349.16;;;-140.64;100.00
7930;BME280;4010;42.698;23.124;2022-09-01T09:30:05;118349.16;;;-140.64;100.00
7930;BME280;4010;42.698;23.124;2022-09-01T09:32:45;118349.16;;;-140.64;100.00
7930;BME280;4010;42.698;23.124;2022-09-01T09:35:23;118349.16;;;-140.64;100.00
7930;BME280;4010;42.698;23.124;2022-09-01T09:37:50;118349.16;;;-140.64;100.00
7930;BME280;4010;42.698;23.124;2022-09-01T09:40:19;118349.16;;;-140.64;100.00
7930;BME280;4010;42.698;23.124;2022-09-01T09:43:04;118349.16;;;-140.64;100.00
7930;BME280;4010;42.698;23.124;2022-09-01T09:45:35;118349.16;;;-140.64;100.00
7930;BME280;4010;42.698;23.124;2022-09-01T09:48:05;118349.16;;;-140.64;100.00
7930;BME280;4010;42.698;23.124;2022-09-01T09:50:35;118349.16;;;-140.64;100.00
7930;BME280;4010;42.698;23.124;2022-09-01T09:53:12;118349.16;;;-140.64;100.00
7930;BME280;4010;42.698;23.124;2022-09-01T09:55:55;118349.16;;;-140.64;100.00
7930;BME280;4010;42.698;23.124;2022-09-01T09:58:25;118349.16;;;-140.64;100.00
7930;BME280;4010;42.698;23.124;2022-09-01T10:01:04;118349.16;;;-140.64;100.00
7930;BME280;4010;42.698;23.124;2022-09-01T10:03:40;118349.16;;;-140.64;100.00
7930;BME280;4010;42.698;23.124;2022-09-01T10:06:13;118349.16;;;-140.64;100.00
7930;BME280;4010;42.698;23.124;2022-09-01T10:08:43;118349.16;;;-140.64;100.00
7930;BME280;4010;42.698;23.124;2022-09-01T10:11:26;118349.16;;;-140.64;100.00
7930;BME280;4010;42.698;23.124;2022-09-01T10:13:54;118349.16;;;-140.64;100.00
7930;BME280;4010;42.698;23.124;2022-09-01T10:16:27;118349.16;;;-140.64;100.00
7930;BME280;4010;42.698;23.124;2022-09-01T10:18:57;118349.16;;;-140.64;99.40
7930;BME280;4010;42.698;23.124;2022-09-01T10:21:31;118349.16;;;-140.64;100.00
7930;BME280;4010;42.698;23.124;2022-09-01T10:23:59;118349.16;;;-140.64;100.00
7930;BME280;4010;42.698;23.124;2022-09-01T10:26:31;118349.16;;;-140.64;100.00
7930;BME280;4010;42.698;23.124;2022-09-01T10:29:05;118349.16;;;-140.64;97.94
7930;BME280;4010;42.698;23.124;2022-09-01T10:31:35;118349.16;;;-140.64;100.00
7930;BME280;4010;42.698;23.124;2022-09-01T10:34:04;118349.16;;;-140.64;99.39
7930;BME280;4010;42.698;23.124;2022-09-01T10:36:32;118349.16;;;-140.64;100.00
7930;BME280;4010;42.698;23.124;2022-09-01T10:39:00;118349.16;;;-140.64;97.58
7930;BME280;4010;42.698;23.124;2022-09-01T10:41:43;118349.16;;;-140.64;97.39
7930;BME280;4010;42.698;23.124;2022-09-01T10:44:17;118349.16;;;-140.64;98.89
7930;BME280;4010;42.698;23.124;2022-09-01T10:46:47;118349.16;;;-140.64;100.00
7930;BME280;4010;42.698;23.124;2022-09-01T10:52:58;118349.16;;;-140.64;95.47
7930;BME280;4010;42.698;23.124;2022-09-01T10:55:30;118349.16;;;-140.64;93.12
7930;BME280;4010;42.698;23.124;2022-09-01T10:58:07;118349.16;;;-140.64;95.07
7930;BME280;4010;42.698;23.124;2022-09-01T11:00:52;118349.16;;;-140.64;92.93
7930;BME280;4010;42.698;23.124;2022-09-01T11:03:36;118349.16;;;-140.64;89.71
7930;BME280;4010;42.698;23.124;2022-09-01T11:06:04;118349.16;;;-140.64;88.74
7930;BME280;4010;42.698;23.124;2022-09-01T11:08:44;118349.16;;;-140.64;88.67
7930;BME280;4010;42.698;23.124;2022-09-01T11:11:23;118349.16;;;-140.64;86.99
7930;BME280;4010;42.698;23.124;2022-09-01T11:13:54;118349.16;;;-140.64;88.56
7930;BME280;4010;42.698;23.124;2022-09-01T11:16:30;118349.16;;;-140.64;89.00
7930;BME280;4010;42.698;23.124;2022-09-01T11:19:26;118349.16;;;-140.64;86.22
7930;BME280;4010;42.698;23.124;2022-09-01T11:22:13;118349.16;;;-140.64;86.13
7930;BME280;4010;42.698;23.124;2022-09-01T11:25:04;118349.16;;;-140.64;92.52
7930;BME280;4010;42.698;23.124;2022-09-01T11:31:02;118349.16;;;-140.64;87.87
7930;BME280;4010;42.698;23.124;2022-09-01T11:36:50;118349.16;;;-140.64;85.95
7930;BME280;4010;42.698;23.124;2022-09-01T11:39:32;118349.16;;;-140.64;92.38
7930;BME280;4010;42.698;23.124;2022-09-01T11:42:06;118349.16;;;-140.64;87.15
7930;BME280;4010;42.698;23.124;2022-09-01T11:44:39;118349.16;;;-140.64;88.40
7930;BME280;4010;42.698;23.124;2022-09-01T11:47:11;118349.16;;;-140.64;84.69
7930;BME280;4010;42.698;23.124;2022-09-01T11:49:48;118349.16;;;-140.64;85.91
7930;BME280;4010;42.698;23.124;2022-09-01T11:52:16;118349.16;;;-140.64;85.02
7930;BME280;4010;42.698;23.124;2022-09-01T11:54:43;118349.16;;;-140.64;85.26
7930;BME280;4010;42.698;23.124;2022-09-01T11:57:22;118349.16;;;-140.64;84.97
7930;BME280;4010;42.698;23.124;2022-09-01T11:59:49;118349.16;;;-140.64;86.11
7930;BME280;4010;42.698;23.124;2022-09-01T12:02:18;118349.16;;;-140.64;87.50
7930;BME280;4010;42.698;23.124;2022-09-01T12:04:45;118349.16;;;-140.64;81.62
7930;BME280;4010;42.698;23.124;2022-09-01T12:07:13;118349.16;;;-140.64;82.67
7930;BME280;4010;42.698;23.124;2022-09-01T12:09:49;118349.16;;;-140.64;81.83
7930;BME280;4010;42.698;23.124;2022-09-01T12:12:32;118349.16;;;-140.64;82.78
7930;BME280;4010;42.698;23.124;2022-09-01T12:15:00;118349.16;;;-140.64;83.67
7930;BME280;4010;42.698;23.124;2022-09-01T12:17:27;118349.16;;;-140.64;78.72
7930;BME280;4010;42.698;23.124;2022-09-01T12:19:54;118349.16;;;-140.64;82.28
7930;BME280;4010;42.698;23.124;2022-09-01T12:22:21;118349.16;;;-140.64;83.86
7930;BME280;4010;42.698;23.124;2022-09-01T12:24:51;118349.16;;;-140.64;79.73
7930;BME280;4010;42.698;23.124;2022-09-01T12:27:18;118349.16;;;-140.64;84.51
7930;BME280;4010;42.698;23.124;2022-09-01T12:29:47;118349.16;;;-140.64;84.46
7930;BME280;4010;42.698;23.124;2022-09-01T12:32:14;118349.16;;;-140.64;81.98
7930;BME280;4010;42.698;23.124;2022-09-01T12:34:44;118349.16;;;-140.64;82.57
7930;BME280;4010;42.698;23.124;2022-09-01T12:37:20;118349.16;;;-140.64;78.17
7930;BME280;4010;42.698;23.124;2022-09-01T12:39:49;118349.16;;;-140.64;78.42
7930;BME280;4010;42.698;23.124;2022-09-01T12:42:24;118349.16;;;-140.64;83.93
7930;BME280;4010;42.698;23.124;2022-09-01T12:44:55;118349.16;;;-140.64;78.74
7930;BME280;4010;42.698;23.124;2022-09-01T12:47:48;118349.16;;;-140.64;74.82
7930;BME280;4010;42.698;23.124;2022-09-01T12:50:43;118349.16;;;-140.64;75.70
7930;BME280;4010;42.698;23.124;2022-09-01T12:53:18;118349.16;;;-140.64;73.34
7930;BME280;4010;42.698;23.124;2022-09-01T12:55:55;118349.16;;;-140.64;69.69
7930;BME280;4010;42.698;23.124;2022-09-01T12:58:26;118349.16;;;-140.64;69.84
7930;BME280;4010;42.698;23.124;2022-09-01T13:00:57;118349.16;;;-140.64;72.46
7930;BME280;4010;42.698;23.124;2022-09-01T13:03:25;118349.16;;;-140.64;77.35
7930;BME280;4010;42.698;23.124;2022-09-01T13:05:55;118349.16;;;-140.64;71.68